Weather History for Pecos, TX

Change the Weather History Date:

Thursday, June 5, 2014

  Actual Average Record
Temperature  
Mean Temperature 88 °F -  
Max Temperature 109 °F 94 °F 109 °F (2014)
Min Temperature 66 °F 62 °F 53 °F (1970)
Cooling Degree Days 22    
Growing Degree Days 38 (Base 50)    
Moisture  
Dew Point 52 °F    
Average Humidity 33    
Maximum Humidity 65    
Minimum Humidity 11    
Precipitation  
Precipitation 0.00 in - - ()
Sea Level Pressure  
Sea Level Pressure 29.75 in    
Wind  
Wind Speed 9 mph (ESE)    
Max Wind Speed 29 mph    
Max Gust Speed 36 mph    
Visibility 10 miles    
Events      
Averages and records for this station are not official NWS values.
T = Trace of Precipitation, MM = Missing Value Source: NWS Daily Summary

Daily Weather History Graph

Daily Weather History Graph

Search for Another Location

Airport:

Trip Planner

Search our weather history database for the weather conditions in past years. The results will help you decide how hot, cold, wet, or windy it might be!

Date:

Astronomy

Jun. 05, 2014 Rise Set
Actual Time 6:49 AM CDT 8:55 PM CDT
Civil Twilight 6:21 AM CDT 9:23 PM CDT
Nautical Twilight 5:47 AM CDT 9:57 PM CDT
Astronomical Twilight 5:11 AM CDT 10:33 PM CDT
Moon 1:47 PM CDT (6/5) 1:44 AM CDT (6/5)
Length of Visible Light 15h 01m
Length of Day
14h 06m
Waxing Crescent, 49% of the Moon is Illuminated
Jun 5
Waxing Crescent
Jun 5
First Quarter
Jun 12
Full
Jun 19
Last Quarter
Jun 27
New

Hourly Weather History & Observations

Time (CDT) Temp. Heat Index Dew Point Humidity Pressure Visibility Wind Dir Wind Speed Gust Speed Precip Events Conditions
12:15 AM 84.0 °F - 52.9 °F 34% 29.78 in 10.0 mi SE 15.0 mph - N/A   Clear
12:35 AM 82.9 °F 81.8 °F 53.6 °F 36% 29.78 in 10.0 mi SE 11.5 mph - N/A   Clear
12:55 AM 81.9 °F 81.2 °F 54.7 °F 39% 29.78 in 10.0 mi ESE 15.0 mph - N/A   Clear
1:15 AM 81.1 °F 81.0 °F 55.8 °F 42% 29.77 in 10.0 mi ESE 16.1 mph - N/A   Clear
1:35 AM 80.6 °F 80.6 °F 56.1 °F 43% 29.77 in 10.0 mi ESE 13.8 mph 18.4 mph N/A   Clear
1:55 AM 79.5 °F - 56.3 °F 45% 29.78 in 10.0 mi ESE 10.4 mph - N/A   Clear
2:15 AM 78.8 °F - 56.5 °F 46% 29.77 in 10.0 mi East 10.4 mph - N/A   Clear
2:35 AM 77.7 °F - 56.7 °F 48% 29.77 in 10.0 mi East 13.8 mph - N/A   Clear
2:55 AM 77.0 °F - 56.7 °F 49% 29.77 in 10.0 mi East 9.2 mph - N/A   Clear
3:15 AM 76.3 °F - 56.5 °F 50% 29.76 in 10.0 mi East 10.4 mph - N/A   Clear
3:35 AM 75.6 °F - 55.9 °F 50% 29.75 in 10.0 mi East 9.2 mph - N/A   Clear
3:55 AM 74.8 °F - 55.8 °F 51% 29.75 in 10.0 mi East 9.2 mph - N/A   Clear
4:15 AM 73.8 °F - 55.8 °F 53% 29.75 in 10.0 mi East 9.2 mph - N/A   Clear
4:35 AM 73.0 °F - 55.8 °F 55% 29.75 in 10.0 mi East 8.1 mph - N/A   Clear
4:55 AM 72.0 °F - 55.6 °F 56% 29.75 in 10.0 mi East 5.8 mph - N/A   Clear
5:15 AM 70.7 °F - 55.4 °F 58% 29.75 in 10.0 mi ENE 4.6 mph - N/A   Clear
5:35 AM 70.3 °F - 55.2 °F 59% 29.76 in 10.0 mi Calm Calm - N/A   Clear
5:55 AM 69.4 °F - 54.7 °F 59% 29.76 in 10.0 mi ENE 6.9 mph - N/A   Clear
6:15 AM 68.9 °F - 55.0 °F 61% 29.76 in 10.0 mi NE 6.9 mph - N/A   Clear
6:35 AM 68.0 °F - 54.9 °F 63% 29.77 in 10.0 mi NE 6.9 mph - N/A   Clear
6:55 AM 67.6 °F - 54.9 °F 64% 29.77 in 10.0 mi NE 4.6 mph - N/A   Clear
7:15 AM 66.0 °F - 53.8 °F 65% 29.78 in 7.0 mi Calm Calm - N/A   Clear
7:35 AM 66.4 °F - 53.8 °F 64% 29.79 in 10.0 mi West 4.6 mph - N/A   Clear
7:55 AM 68.5 °F - 54.7 °F 61% 29.79 in 10.0 mi West 3.5 mph - N/A   Clear
8:35 AM 72.7 °F - 55.2 °F 54% 29.79 in 10.0 mi Calm Calm - N/A   Clear
8:55 AM 75.2 °F - 55.6 °F 50% 29.80 in 10.0 mi Calm Calm - N/A   Clear
9:15 AM 77.0 °F - 55.8 °F 48% 29.80 in 10.0 mi Calm Calm - N/A   Clear
9:35 AM 79.3 °F - 55.6 °F 44% 29.81 in 10.0 mi Calm Calm - N/A   Clear
9:55 AM 82.6 °F 81.7 °F 54.5 °F 38% 29.81 in 10.0 mi Calm Calm - N/A   Clear
10:15 AM 84.4 °F 82.8 °F 53.2 °F 34% 29.81 in 10.0 mi Calm Calm - N/A   Clear
10:35 AM 86.9 °F 84.8 °F 53.2 °F 31% 29.80 in 10.0 mi Calm Calm - N/A   Clear
10:55 AM 88.0 °F 85.7 °F 53.1 °F 30% 29.80 in 10.0 mi Calm Calm - N/A   Clear
11:15 AM 90.5 °F - 52.0 °F 27% 29.80 in 7.0 mi Calm Calm - N/A   Clear
11:35 AM 92.8 °F - 49.6 °F 23% 29.79 in 10.0 mi Calm Calm - N/A   Clear
11:55 AM 95.9 °F - 48.6 °F 20% 29.79 in 10.0 mi Calm Calm - N/A   Clear
12:15 PM 96.6 °F - 47.7 °F 19% 29.79 in 10.0 mi ENE 3.5 mph - N/A   Clear
12:35 PM 99.0 °F - 47.8 °F 18% 29.78 in 10.0 mi SE 4.6 mph - N/A   Clear
12:55 PM 99.7 °F - 47.5 °F 17% 29.78 in 10.0 mi Calm Calm - N/A   Clear
1:15 PM 100.2 °F - 46.9 °F 16% 29.78 in 7.0 mi Calm Calm - N/A   Clear
1:35 PM 101.7 °F - 46.9 °F 16% 29.77 in 10.0 mi Calm Calm - N/A   Clear
1:55 PM 102.4 °F - 46.8 °F 15% 29.76 in 10.0 mi Calm Calm - N/A   Clear
2:15 PM 103.8 °F - 46.4 °F 14% 29.76 in 10.0 mi NNE 5.8 mph - N/A   Clear
2:35 PM 104.7 °F - 44.4 °F 13% 29.75 in 10.0 mi Calm Calm - N/A   Clear
2:55 PM 105.6 °F - 44.4 °F 13% 29.74 in 10.0 mi Calm Calm - N/A   Clear
3:15 PM 107.8 °F - 45.0 °F 12% 29.73 in 10.0 mi East 8.1 mph - N/A   Clear
3:35 PM 108.0 °F - 43.7 °F 11% 29.72 in 10.0 mi Calm Calm - N/A   Clear
3:55 PM 108.0 °F - 43.2 °F 11% 29.72 in 10.0 mi South 6.9 mph - N/A   Clear
4:15 PM 108.7 °F - 43.7 °F 11% 29.71 in 10.0 mi ESE 5.8 mph - N/A   Clear
4:35 PM 107.6 °F - 42.8 °F 11% 29.70 in 10.0 mi NNE 3.5 mph - N/A   Clear
4:55 PM 108.7 °F - 43.3 °F 11% 29.70 in 10.0 mi ENE 4.6 mph - N/A   Clear
5:15 PM 109.0 °F - 45.1 °F 12% 29.69 in 10.0 mi ENE 12.7 mph 17.3 mph N/A   Clear
5:35 PM 108.0 °F - 43.9 °F 12% 29.68 in 10.0 mi SE 6.9 mph 16.1 mph N/A   Clear
5:55 PM 108.1 °F - 43.3 °F 11% 29.68 in 10.0 mi SE 10.4 mph - N/A   Clear
6:15 PM 107.4 °F - 43.3 °F 11% 29.67 in 10.0 mi East 12.7 mph 18.4 mph N/A   Clear
6:35 PM 108.9 °F - 44.8 °F 12% 29.66 in 10.0 mi ENE 13.8 mph - N/A   Clear
6:55 PM 107.2 °F - 41.7 °F 11% 29.66 in 10.0 mi East 12.7 mph - N/A   Clear
7:15 PM 103.5 °F - 46.8 °F 15% 29.66 in 5.0 mi ESE 25.3 mph 33.4 mph N/A   Haze
7:35 PM 103.1 °F - 48.0 °F 16% 29.67 in 10.0 mi ESE 26.5 mph 33.4 mph N/A   Clear
7:55 PM 101.3 °F - 47.5 °F 16% 29.67 in 10.0 mi ESE 25.3 mph 32.2 mph N/A   Clear
8:15 PM 99.7 °F - 50.9 °F 19% 29.68 in 10.0 mi ESE 28.8 mph 35.7 mph N/A   Clear
8:35 PM 97.0 °F 95.3 °F 55.2 °F 25% 29.69 in 10.0 mi ESE 24.2 mph 33.4 mph N/A   Clear
8:55 PM 94.8 °F 93.1 °F 56.1 °F 27% 29.70 in 10.0 mi ESE 26.5 mph 31.1 mph N/A   Clear
9:15 PM 93.2 °F 91.9 °F 57.0 °F 30% 29.70 in 10.0 mi SE 21.9 mph 27.6 mph N/A   Clear
9:55 PM 90.3 °F 89.0 °F 57.6 °F 33% 29.73 in 10.0 mi SE 17.3 mph 27.6 mph N/A   Clear
10:15 PM 89.6 °F 88.4 °F 57.4 °F 34% 29.74 in 10.0 mi SE 17.3 mph 23.0 mph N/A   Clear
10:35 PM 88.3 °F 87.1 °F 57.6 °F 35% 29.75 in 10.0 mi SE 18.4 mph - N/A   Clear
10:55 PM 87.6 °F 86.7 °F 58.3 °F 37% 29.76 in 10.0 mi SE 17.3 mph - N/A   Clear
11:15 PM 86.4 °F 85.6 °F 59.0 °F 39% 29.77 in 10.0 mi SE 16.1 mph 21.9 mph N/A   Clear
11:35 PM 85.3 °F 85.0 °F 59.9 °F 42% 29.78 in 10.0 mi ESE 12.7 mph - N/A   Clear
11:55 PM 84.4 °F 84.6 °F 60.6 °F 45% 29.78 in 10.0 mi ESE 15.0 mph 19.6 mph N/A   Clear